Flight Track Log - Related Links

Times and Time Zones

All times are in EDT time to prevent confusion due to time zone crossing. See the KAP29 flight status page for this flight to view local times or setup timezone preferences in your user account.

Time Position Orientation Groundspeed Altitude Reporting Facility
EDT Latitude Longitude Course Direction KTS MPH feet Rate Location/Type
Thu 08:11:15 AM 44.4181 -74.0997 109° East 154 177 4,000  Level Boston Center
Thu 08:12:15 AM 44.4022 -74.0556 117° Southeast 134 154 4,800 800 Climbing Boston Center
Thu 08:13:15 AM 44.3817 -74.0172 127° Southeast 128 147 5,600 850 Climbing Boston Center
Thu 08:14:15 AM 44.3636 -73.9733 120° Southeast 128 147 6,500 750 Climbing Boston Center
Thu 08:15:15 AM 44.3414 -73.9264 123° Southeast 128 147 7,100 450 Climbing Boston Center
Thu 08:16:00 AM 44.2770 -73.9748 109° East  Level FlightAware Approximate
Thu 08:16:15 AM 44.3189 -73.8792 124° Southeast 134 154 7,400  Level Boston Center
Thu 08:17:15 AM 44.2967 -73.8267 121° Southeast 144 166 7,600 200 Climbing Boston Center
Thu 08:18:15 AM 44.2744 -73.7767 122° Southeast 150 173 7,800 200 Climbing Boston Center
Thu 08:19:15 AM 44.2519 -73.7269 122° Southeast 150 173 8,000 100 Climbing Boston Center
Thu 08:20:15 AM 44.2278 -73.6714 121° Southeast 150 173 8,000  Level Boston Center
Thu 08:21:15 AM 44.2033 -73.6186 123° Southeast 155 178 8,000  Level Boston Center
Thu 08:22:15 AM 44.1767 -73.5633 124° Southeast 160 184 8,000  Level Boston Center
Thu 08:23:15 AM 44.1522 -73.5078 122° Southeast 165 190 8,000 150 Level Boston Center
Thu 08:24:15 AM 44.1278 -73.4581 124° Southeast 165 190 8,300 400 Climbing Boston Center
Thu 08:25:15 AM 44.1031 -73.4028 122° Southeast 150 173 8,800 350 Climbing Boston Center
Thu 08:26:15 AM 44.0825 -73.3592 123° Southeast 156 180 9,000 100 Climbing Boston Center
Thu 08:27:15 AM 44.0558 -73.3039 124° Southeast 167 192 9,000  Level Boston Center
Thu 08:28:15 AM 44.0314 -73.2544 125° Southeast 167 192 9,000  Level Boston Center
Thu 08:29:15 AM 44.0067 -73.1964 121° Southeast 172 198 9,000  Level Boston Center
Thu 08:30:15 AM 43.9781 -73.1383 124° Southeast 172 198 9,000  Level Boston Center
Thu 08:31:15 AM 43.9511 -73.0803 123° Southeast 172 198 9,000  Level Boston Center
Thu 08:32:15 AM 43.9244 -73.0222 123° Southeast 172 198 9,000  Level Boston Center
Thu 08:33:15 AM 43.8975 -72.9672 124° Southeast 177 204 9,000  Level Boston Center
Thu 08:34:15 AM 43.8667 -72.9036 124° Southeast 177 204 9,000  Level Boston Center
Thu 08:35:15 AM 43.8417 -72.8458 121° Southeast 177 204 9,000  Level Boston Center
Thu 08:36:15 AM 43.8128 -72.7911 126° Southeast 177 204 9,000  Level Boston Center
Thu 08:37:15 AM 43.7858 -72.7333 123° Southeast 177 204 9,000  Level Boston Center
Thu 08:38:27 AM 43.7589 -72.6758 123° Southeast 177 204 9,000  Level Boston Center
Thu 08:39:27 AM 43.7278 -72.6097 123° Southeast 177 204 9,000  Level Boston Center
Thu 08:40:27 AM 43.7008 -72.5492 122° Southeast 182 209 9,000  Level Boston Center
Thu 08:41:27 AM 43.6758 -72.5033 127° Southeast 182 209 9,000  Level Boston Center
Thu 08:42:27 AM 43.6425 -72.4314 123° Southeast 182 209 9,000  Level Boston Center
Thu 08:43:27 AM 43.6133 -72.3714 124° Southeast 182 209 9,000  Level Boston Center
Thu 08:44:27 AM 43.5842 -72.3139 125° Southeast 182 209 9,000  Level Boston Center
Thu 08:45:27 AM 43.5569 -72.2567 123° Southeast 182 209 9,000  Level Boston Center
Thu 08:46:27 AM 43.5297 -72.1967 122° Southeast 182 209 9,000  Level Boston Center
Thu 08:47:27 AM 43.5003 -72.1394 125° Southeast 187 215 9,000  Level Boston Center
Thu 08:48:27 AM 43.4731 -72.0797 122° Southeast 187 215 9,000  Level Boston Center
Thu 08:49:27 AM 43.4417 -72.0197 126° Southeast 187 215 9,000  Level Boston Center
Thu 08:50:27 AM 43.4144 -71.9769 131° Southeast 187 215 9,000  Level Boston Center
Thu 08:51:27 AM 43.3661 -71.9117 136° Southeast 182 209 9,000  Level Boston Center
Thu 08:52:27 AM 43.3306 -71.8636 135° Southeast 177 204 9,000  Level Boston Center
Thu 08:53:27 AM 43.2947 -71.8153 136° Southeast 177 204 9,000  Level Boston Center
Thu 08:54:27 AM 43.2569 -71.7644 136° Southeast 182 209 9,000  Level Boston Center
Thu 08:55:27 AM 43.2192 -71.7164 137° Southeast 182 209 9,000  Level Boston Center
Thu 08:56:27 AM 43.1836 -71.6683 135° Southeast 187 215 9,000  Level Boston Center
Thu 08:57:27 AM 43.1456 -71.6178 136° Southeast 187 215 9,000  Level Boston Center
Thu 08:58:01 AM 43.1333 -71.5833 116° Southeast 187 215 9,000 -255 Level KA90
Thu 08:59:01 AM 43.0833 -71.5333 144° Southeast 200 230 8,600 -550 Descending KA90
Thu 09:00:01 AM 43.0500 -71.4833 132° Southeast 208 239 7,900 -550 Descending KA90
Thu 09:01:01 AM 43.0000 -71.4333 144° Southeast 206 237 7,500 -500 Descending KA90
Thu 09:02:01 AM 42.9667 -71.3833 132° Southeast 202 232 6,900 -550 Descending KA90
Thu 09:03:01 AM 42.9167 -71.3333 144° Southeast 197 227 6,400 -450 Descending KA90
Thu 09:04:01 AM 42.8833 -71.2833 132° Southeast 194 223 6,000 -200 Descending KA90
Thu 09:05:01 AM 42.8500 -71.2333 132° Southeast 179 206 6,000  Level KA90
Thu 09:06:01 AM 42.8000 -71.1833 144° Southeast 175 201 6,000  Level KA90
Thu 09:07:01 AM 42.7667 -71.1500 144° Southeast 173 199 6,000 -50 Level KA90
Thu 09:08:01 AM 42.7333 -71.1000 132° Southeast 173 199 5,900 -300 Descending KA90
Thu 09:09:01 AM 42.7000 -71.0667 144° Southeast 188 216 5,400 -550 Descending KA90
Thu 09:10:01 AM 42.6500 -71.0167 144° Southeast 189 217 4,800 -650 Descending KA90
Thu 09:11:01 AM 42.6000 -70.9667 144° Southeast 194 223 4,100 -400 Descending KA90
Thu 09:12:01 AM 42.5667 -70.9333 144° Southeast 184 212 4,000 -100 Descending KA90
Thu 09:13:01 AM 42.5333 -70.8833 132° Southeast 174 200 3,900 -50 Descending KA90
Thu 09:14:01 AM 42.5000 -70.8500 144° Southeast 172 198 3,900 -400 Level KA90
Thu 09:15:01 AM 42.4500 -70.8167 154° Southeast 181 208 3,100 -450 Descending KA90
Thu 09:16:01 AM 42.4000 -70.8167 180° South 175 201 3,000 -50 Descending KA90
Thu 09:17:01 AM 42.3500 -70.8167 180° South 165 190 3,000 -50 Level KA90
Thu 09:18:01 AM 42.3333 -70.8500 236° Southwest 160 184 2,900 -650 Descending KA90
Thu 09:19:01 AM 42.3500 -70.9167 289° West 181 208 1,700 -1,100 Descending KA90
Thu 09:20:01 AM 42.3667 -70.9667 294° West 142 163 700 -1,000 Descending KA90
Thu 09:22:00 AM 42.3500 -71.0000 234° Southwest  Level FlightAware Approximate

Login

Don't have an account? Register now (free) for customized features, flight alerts, and more!